sensor_id;sensor_type;location;lat;lon;timestamp;noise_LAeq;noise_LA_min;noise_LA_max;noise_LA01;noise_LA95
60872;Laerm;46714;50.118;14.462;2022-09-21T00:01:10;66.04;44.23;72.87;;
60872;Laerm;46714;50.118;14.462;2022-09-21T00:03:36;64.84;49.96;72.77;;
60872;Laerm;46714;50.118;14.462;2022-09-21T00:06:04;62.86;41.38;75.40;;
60872;Laerm;46714;50.118;14.462;2022-09-21T00:08:30;64.63;43.14;80.57;;
60872;Laerm;46714;50.118;14.462;2022-09-21T00:10:55;66.53;46.15;75.59;;
60872;Laerm;46714;50.118;14.462;2022-09-21T00:13:21;65.53;50.15;76.00;;
60872;Laerm;46714;50.118;14.462;2022-09-21T00:15:46;64.91;48.10;72.41;;
60872;Laerm;46714;50.118;14.462;2022-09-21T00:18:11;66.77;53.23;79.71;;
60872;Laerm;46714;50.118;14.462;2022-09-21T00:20:40;64.36;49.63;75.00;;
60872;Laerm;46714;50.118;14.462;2022-09-21T00:23:08;65.90;46.78;75.18;;
60872;Laerm;46714;50.118;14.462;2022-09-21T00:25:34;65.96;43.14;76.98;;
60872;Laerm;46714;50.118;14.462;2022-09-21T00:27:59;64.09;45.91;73.62;;
60872;Laerm;46714;50.118;14.462;2022-09-21T00:30:25;64.99;49.87;77.59;;
60872;Laerm;46714;50.118;14.462;2022-09-21T00:32:52;60.09;41.89;71.04;;
60872;Laerm;46714;50.118;14.462;2022-09-21T00:35:17;65.67;46.05;75.57;;
60872;Laerm;46714;50.118;14.462;2022-09-21T00:37:43;60.38;42.35;71.29;;
60872;Laerm;46714;50.118;14.462;2022-09-21T00:40:09;63.73;45.63;71.79;;
60872;Laerm;46714;50.118;14.462;2022-09-21T00:42:34;67.46;49.85;78.17;;
60872;Laerm;46714;50.118;14.462;2022-09-21T00:45:00;64.26;45.80;74.68;;
60872;Laerm;46714;50.118;14.462;2022-09-21T00:47:31;66.05;42.71;78.86;;
60872;Laerm;46714;50.118;14.462;2022-09-21T00:49:59;64.02;45.14;75.87;;
60872;Laerm;46714;50.118;14.462;2022-09-21T00:52:28;64.59;47.52;75.58;;
60872;Laerm;46714;50.118;14.462;2022-09-21T00:55:01;67.64;44.76;77.11;;
60872;Laerm;46714;50.118;14.462;2022-09-21T00:57:30;65.25;45.72;75.96;;
60872;Laerm;46714;50.118;14.462;2022-09-21T01:00:00;67.60;49.71;79.51;;
60872;Laerm;46714;50.118;14.462;2022-09-21T01:02:26;63.89;46.30;72.57;;
60872;Laerm;46714;50.118;14.462;2022-09-21T01:04:52;67.38;47.74;79.53;;
60872;Laerm;46714;50.118;14.462;2022-09-21T01:07:22;65.36;47.26;75.17;;
60872;Laerm;46714;50.118;14.462;2022-09-21T01:09:53;66.11;45.66;77.01;;
60872;Laerm;46714;50.118;14.462;2022-09-21T01:12:42;68.52;52.82;80.84;;
60872;Laerm;46714;50.118;14.462;2022-09-21T01:31:26;63.55;42.76;74.21;;
60872;Laerm;46714;50.118;14.462;2022-09-21T01:33:57;66.08;48.52;76.03;;
60872;Laerm;46714;50.118;14.462;2022-09-21T01:36:28;66.12;50.68;75.76;;
60872;Laerm;46714;50.118;14.462;2022-09-21T01:38:57;67.18;48.32;77.51;;
60872;Laerm;46714;50.118;14.462;2022-09-21T01:41:26;65.85;46.07;75.82;;
60872;Laerm;46714;50.118;14.462;2022-09-21T01:43:57;65.44;50.79;75.89;;
60872;Laerm;46714;50.118;14.462;2022-09-21T01:46:29;66.95;49.07;77.09;;
60872;Laerm;46714;50.118;14.462;2022-09-21T01:49:04;67.53;56.33;75.95;;
60872;Laerm;46714;50.118;14.462;2022-09-21T01:51:34;64.21;48.20;73.75;;
60872;Laerm;46714;50.118;14.462;2022-09-21T01:54:10;65.39;47.18;79.22;;
60872;Laerm;46714;50.118;14.462;2022-09-21T01:57:08;66.26;53.69;77.72;;
60872;Laerm;46714;50.118;14.462;2022-09-21T01:59:49;67.30;51.26;78.93;;
60872;Laerm;46714;50.118;14.462;2022-09-21T02:02:29;66.14;50.20;77.16;;
60872;Laerm;46714;50.118;14.462;2022-09-21T02:05:03;66.36;48.52;77.31;;
60872;Laerm;46714;50.118;14.462;2022-09-21T02:07:31;67.15;51.90;77.00;;
60872;Laerm;46714;50.118;14.462;2022-09-21T02:09:56;67.96;51.48;78.45;;
60872;Laerm;46714;50.118;14.462;2022-09-21T02:12:22;64.67;48.49;73.34;;
60872;Laerm;46714;50.118;14.462;2022-09-21T02:14:51;65.34;46.40;76.64;;
60872;Laerm;46714;50.118;14.462;2022-09-21T02:22:35;68.14;47.74;76.36;;
60872;Laerm;46714;50.118;14.462;2022-09-21T02:25:14;67.44;50.81;81.68;;
60872;Laerm;46714;50.118;14.462;2022-09-21T02:27:49;69.35;52.77;80.17;;
60872;Laerm;46714;50.118;14.462;2022-09-21T02:30:20;67.21;51.95;78.09;;
60872;Laerm;46714;50.118;14.462;2022-09-21T02:33:08;65.95;52.06;77.93;;
60872;Laerm;46714;50.118;14.462;2022-09-21T02:41:10;68.81;56.80;76.11;;
60872;Laerm;46714;50.118;14.462;2022-09-21T02:43:44;66.30;53.81;75.69;;
60872;Laerm;46714;50.118;14.462;2022-09-21T02:46:38;68.08;55.71;76.72;;
60872;Laerm;46714;50.118;14.462;2022-09-21T02:49:18;68.43;48.34;79.01;;
60872;Laerm;46714;50.118;14.462;2022-09-21T02:51:48;67.76;51.88;76.65;;
60872;Laerm;46714;50.118;14.462;2022-09-21T02:54:25;69.58;57.53;81.06;;
60872;Laerm;46714;50.118;14.462;2022-09-21T02:56:52;69.85;56.11;82.57;;
60872;Laerm;46714;50.118;14.462;2022-09-21T02:59:18;69.16;60.52;76.57;;
60872;Laerm;46714;50.118;14.462;2022-09-21T03:01:45;68.85;55.11;76.79;;
60872;Laerm;46714;50.118;14.462;2022-09-21T03:04:11;68.12;58.22;75.13;;
60872;Laerm;46714;50.118;14.462;2022-09-21T03:06:36;68.98;55.79;75.71;;
60872;Laerm;46714;50.118;14.462;2022-09-21T03:09:02;70.20;58.86;78.44;;
60872;Laerm;46714;50.118;14.462;2022-09-21T03:11:28;71.10;59.22;81.05;;
60872;Laerm;46714;50.118;14.462;2022-09-21T03:13:53;70.60;57.87;78.32;;
60872;Laerm;46714;50.118;14.462;2022-09-21T03:16:18;69.93;56.10;76.69;;
60872;Laerm;46714;50.118;14.462;2022-09-21T03:18:44;71.57;63.31;76.83;;
60872;Laerm;46714;50.118;14.462;2022-09-21T03:21:11;71.81;63.57;81.60;;
60872;Laerm;46714;50.118;14.462;2022-09-21T03:23:37;71.41;64.24;76.91;;
60872;Laerm;46714;50.118;14.462;2022-09-21T03:26:02;69.80;62.82;75.08;;
60872;Laerm;46714;50.118;14.462;2022-09-21T03:28:27;71.16;60.97;77.28;;
60872;Laerm;46714;50.118;14.462;2022-09-21T03:30:53;72.74;64.29;80.35;;
60872;Laerm;46714;50.118;14.462;2022-09-21T03:33:19;71.75;65.34;80.08;;
60872;Laerm;46714;50.118;14.462;2022-09-21T03:35:46;72.23;63.14;79.09;;
60872;Laerm;46714;50.118;14.462;2022-09-21T03:38:11;77.58;67.92;95.49;;
60872;Laerm;46714;50.118;14.462;2022-09-21T03:40:37;72.99;66.83;78.42;;
60872;Laerm;46714;50.118;14.462;2022-09-21T03:43:02;72.31;63.97;79.65;;
60872;Laerm;46714;50.118;14.462;2022-09-21T03:45:27;72.99;66.20;78.11;;
60872;Laerm;46714;50.118;14.462;2022-09-21T03:47:54;73.58;66.34;80.46;;
60872;Laerm;46714;50.118;14.462;2022-09-21T03:50:21;73.42;64.97;81.77;;
60872;Laerm;46714;50.118;14.462;2022-09-21T03:52:46;73.10;65.80;78.71;;
60872;Laerm;46714;50.118;14.462;2022-09-21T03:55:12;73.50;66.80;80.75;;
60872;Laerm;46714;50.118;14.462;2022-09-21T03:57:37;72.65;65.55;78.14;;
60872;Laerm;46714;50.118;14.462;2022-09-21T04:00:06;73.16;67.70;78.44;;
60872;Laerm;46714;50.118;14.462;2022-09-21T04:02:34;73.15;66.17;78.16;;
60872;Laerm;46714;50.118;14.462;2022-09-21T04:04:59;73.27;68.15;78.45;;
60872;Laerm;46714;50.118;14.462;2022-09-21T04:07:25;73.84;66.62;78.55;;
60872;Laerm;46714;50.118;14.462;2022-09-21T04:09:50;74.22;68.31;79.73;;
60872;Laerm;46714;50.118;14.462;2022-09-21T04:12:16;73.29;67.98;78.25;;
60872;Laerm;46714;50.118;14.462;2022-09-21T04:14:45;73.91;68.30;80.11;;
60872;Laerm;46714;50.118;14.462;2022-09-21T04:17:10;72.99;68.66;78.79;;
60872;Laerm;46714;50.118;14.462;2022-09-21T04:19:36;74.64;70.50;80.53;;
60872;Laerm;46714;50.118;14.462;2022-09-21T04:22:01;75.22;68.31;80.49;;
60872;Laerm;46714;50.118;14.462;2022-09-21T04:24:26;74.57;69.84;80.19;;
60872;Laerm;46714;50.118;14.462;2022-09-21T04:26:52;72.99;63.20;82.15;;
60872;Laerm;46714;50.118;14.462;2022-09-21T04:29:17;73.98;66.85;78.35;;
60872;Laerm;46714;50.118;14.462;2022-09-21T04:31:42;74.78;67.79;81.41;;
60872;Laerm;46714;50.118;14.462;2022-09-21T04:34:11;74.22;67.44;81.11;;
60872;Laerm;46714;50.118;14.462;2022-09-21T04:36:37;74.04;65.59;82.11;;
60872;Laerm;46714;50.118;14.462;2022-09-21T04:39:03;73.69;65.40;79.72;;
60872;Laerm;46714;50.118;14.462;2022-09-21T04:41:29;74.73;63.83;80.76;;
60872;Laerm;46714;50.118;14.462;2022-09-21T04:43:54;76.12;70.16;87.16;;
60872;Laerm;46714;50.118;14.462;2022-09-21T04:46:20;81.22;70.23;99.15;;
60872;Laerm;46714;50.118;14.462;2022-09-21T04:48:46;74.68;67.59;80.27;;
60872;Laerm;46714;50.118;14.462;2022-09-21T04:51:13;74.34;64.42;80.51;;
60872;Laerm;46714;50.118;14.462;2022-09-21T04:53:41;78.18;66.61;97.31;;
60872;Laerm;46714;50.118;14.462;2022-09-21T04:56:08;76.96;67.20;95.10;;
60872;Laerm;46714;50.118;14.462;2022-09-21T04:58:34;74.86;69.21;78.33;;
60872;Laerm;46714;50.118;14.462;2022-09-21T05:01:00;74.06;66.91;79.03;;
60872;Laerm;46714;50.118;14.462;2022-09-21T05:03:26;75.01;68.33;82.29;;
60872;Laerm;46714;50.118;14.462;2022-09-21T05:05:54;74.39;68.47;80.34;;
60872;Laerm;46714;50.118;14.462;2022-09-21T05:08:20;74.92;68.49;82.31;;
60872;Laerm;46714;50.118;14.462;2022-09-21T05:11:06;76.90;67.16;93.45;;
60872;Laerm;46714;50.118;14.462;2022-09-21T05:13:32;74.85;70.06;79.93;;
60872;Laerm;46714;50.118;14.462;2022-09-21T05:15:57;75.16;68.39;80.23;;
60872;Laerm;46714;50.118;14.462;2022-09-21T05:18:22;74.87;67.83;84.32;;
60872;Laerm;46714;50.118;14.462;2022-09-21T05:20:54;75.43;70.57;80.43;;
60872;Laerm;46714;50.118;14.462;2022-09-21T05:23:21;75.02;69.08;81.55;;
60872;Laerm;46714;50.118;14.462;2022-09-21T05:25:47;74.97;69.18;82.42;;
60872;Laerm;46714;50.118;14.462;2022-09-21T05:28:12;75.27;68.93;80.32;;
60872;Laerm;46714;50.118;14.462;2022-09-21T05:30:38;75.44;70.61;81.53;;
60872;Laerm;46714;50.118;14.462;2022-09-21T05:33:05;76.14;67.92;82.89;;
60872;Laerm;46714;50.118;14.462;2022-09-21T05:35:41;75.12;69.39;81.13;;
60872;Laerm;46714;50.118;14.462;2022-09-21T05:38:16;75.56;68.61;81.89;;
60872;Laerm;46714;50.118;14.462;2022-09-21T05:40:43;75.62;70.97;80.42;;
60872;Laerm;46714;50.118;14.462;2022-09-21T05:43:09;76.04;70.52;80.01;;
60872;Laerm;46714;50.118;14.462;2022-09-21T05:45:39;76.23;70.38;88.00;;
60872;Laerm;46714;50.118;14.462;2022-09-21T05:48:14;76.17;71.32;80.85;;
60872;Laerm;46714;50.118;14.462;2022-09-21T05:53:32;76.04;70.20;79.85;;
60872;Laerm;46714;50.118;14.462;2022-09-21T06:04:26;75.53;68.88;81.53;;
60872;Laerm;46714;50.118;14.462;2022-09-21T06:06:52;75.35;68.57;80.63;;
60872;Laerm;46714;50.118;14.462;2022-09-21T06:09:17;75.57;71.76;79.63;;
60872;Laerm;46714;50.118;14.462;2022-09-21T06:11:45;78.27;68.58;93.65;;
60872;Laerm;46714;50.118;14.462;2022-09-21T06:14:11;75.73;70.58;79.69;;
60872;Laerm;46714;50.118;14.462;2022-09-21T06:16:41;75.51;71.42;80.16;;
60872;Laerm;46714;50.118;14.462;2022-09-21T06:19:12;75.38;70.21;82.54;;
60872;Laerm;46714;50.118;14.462;2022-09-21T06:21:38;75.06;68.89;85.54;;
60872;Laerm;46714;50.118;14.462;2022-09-21T06:24:03;74.71;66.52;78.63;;
60872;Laerm;46714;50.118;14.462;2022-09-21T06:26:28;75.11;69.59;81.91;;
60872;Laerm;46714;50.118;14.462;2022-09-21T06:28:54;73.76;65.06;78.42;;
60872;Laerm;46714;50.118;14.462;2022-09-21T06:31:20;74.62;68.27;84.18;;
60872;Laerm;46714;50.118;14.462;2022-09-21T06:33:45;77.14;68.55;90.35;;
60872;Laerm;46714;50.118;14.462;2022-09-21T06:36:10;74.19;63.47;83.77;;
60872;Laerm;46714;50.118;14.462;2022-09-21T06:38:36;73.42;65.67;78.49;;
60872;Laerm;46714;50.118;14.462;2022-09-21T06:41:02;72.96;65.34;77.64;;
60872;Laerm;46714;50.118;14.462;2022-09-21T06:43:28;73.79;66.63;79.57;;
60872;Laerm;46714;50.118;14.462;2022-09-21T06:45:56;82.36;65.34;104.74;;
60872;Laerm;46714;50.118;14.462;2022-09-21T06:48:21;74.40;63.97;80.94;;
60872;Laerm;46714;50.118;14.462;2022-09-21T06:50:48;74.84;64.06;88.69;;
60872;Laerm;46714;50.118;14.462;2022-09-21T06:53:14;73.78;67.05;78.98;;
60872;Laerm;46714;50.118;14.462;2022-09-21T06:55:40;78.05;68.40;98.19;;
60872;Laerm;46714;50.118;14.462;2022-09-21T06:58:06;75.44;68.08;84.65;;
60872;Laerm;46714;50.118;14.462;2022-09-21T07:00:31;72.38;62.35;78.17;;
60872;Laerm;46714;50.118;14.462;2022-09-21T07:02:57;74.33;69.32;81.20;;
60872;Laerm;46714;50.118;14.462;2022-09-21T07:05:23;74.46;67.18;79.85;;
60872;Laerm;46714;50.118;14.462;2022-09-21T07:07:48;83.72;68.74;101.84;;
60872;Laerm;46714;50.118;14.462;2022-09-21T07:10:14;73.48;67.78;78.75;;
60872;Laerm;46714;50.118;14.462;2022-09-21T07:12:40;75.72;66.77;94.39;;
60872;Laerm;46714;50.118;14.462;2022-09-21T07:15:05;75.00;68.11;82.02;;
60872;Laerm;46714;50.118;14.462;2022-09-21T07:17:35;74.68;69.15;79.51;;
60872;Laerm;46714;50.118;14.462;2022-09-21T07:20:03;74.10;67.50;78.96;;
60872;Laerm;46714;50.118;14.462;2022-09-21T07:22:32;73.95;68.69;80.19;;
60872;Laerm;46714;50.118;14.462;2022-09-21T07:24:58;74.53;66.72;80.08;;
60872;Laerm;46714;50.118;14.462;2022-09-21T07:27:24;74.35;68.47;78.60;;
60872;Laerm;46714;50.118;14.462;2022-09-21T07:29:50;75.53;64.56;91.58;;
60872;Laerm;46714;50.118;14.462;2022-09-21T07:32:16;77.72;71.14;93.15;;
60872;Laerm;46714;50.118;14.462;2022-09-21T07:34:41;74.18;68.55;79.65;;
60872;Laerm;46714;50.118;14.462;2022-09-21T07:37:06;74.67;67.22;82.28;;
60872;Laerm;46714;50.118;14.462;2022-09-21T07:39:32;74.19;68.33;79.30;;
60872;Laerm;46714;50.118;14.462;2022-09-21T07:41:57;73.58;68.66;78.39;;
60872;Laerm;46714;50.118;14.462;2022-09-21T07:44:23;77.36;69.56;97.40;;
60872;Laerm;46714;50.118;14.462;2022-09-21T07:46:48;74.18;67.05;82.12;;
60872;Laerm;46714;50.118;14.462;2022-09-21T07:49:14;76.35;69.81;89.81;;
60872;Laerm;46714;50.118;14.462;2022-09-21T07:51:39;74.39;66.96;82.87;;
60872;Laerm;46714;50.118;14.462;2022-09-21T07:54:05;76.43;67.14;98.76;;
60872;Laerm;46714;50.118;14.462;2022-09-21T07:56:30;73.98;68.20;80.56;;
60872;Laerm;46714;50.118;14.462;2022-09-21T07:58:56;73.91;67.60;79.48;;
60872;Laerm;46714;50.118;14.462;2022-09-21T08:01:34;73.99;69.55;79.27;;
60872;Laerm;46714;50.118;14.462;2022-09-21T08:04:01;74.24;66.65;80.27;;
60872;Laerm;46714;50.118;14.462;2022-09-21T08:06:28;74.41;69.31;79.18;;
60872;Laerm;46714;50.118;14.462;2022-09-21T08:08:55;75.16;68.75;83.66;;
60872;Laerm;46714;50.118;14.462;2022-09-21T08:11:21;74.14;69.07;77.73;;
60872;Laerm;46714;50.118;14.462;2022-09-21T08:13:51;74.14;68.70;87.85;;
60872;Laerm;46714;50.118;14.462;2022-09-21T08:16:17;73.79;67.76;78.22;;
60872;Laerm;46714;50.118;14.462;2022-09-21T08:18:42;74.17;68.63;79.94;;
60872;Laerm;46714;50.118;14.462;2022-09-21T08:21:09;74.05;68.65;80.60;;
60872;Laerm;46714;50.118;14.462;2022-09-21T08:23:35;81.05;67.08;98.26;;
60872;Laerm;46714;50.118;14.462;2022-09-21T08:26:05;74.46;64.43;82.04;;
60872;Laerm;46714;50.118;14.462;2022-09-21T08:28:32;78.50;64.33;97.38;;
60872;Laerm;46714;50.118;14.462;2022-09-21T08:31:05;73.97;64.21;79.02;;
60872;Laerm;46714;50.118;14.462;2022-09-21T08:33:34;77.18;66.16;97.27;;
60872;Laerm;46714;50.118;14.462;2022-09-21T08:36:00;74.85;67.56;79.43;;
60872;Laerm;46714;50.118;14.462;2022-09-21T08:38:31;81.15;71.71;101.86;;
60872;Laerm;46714;50.118;14.462;2022-09-21T08:40:59;77.38;65.29;96.03;;
60872;Laerm;46714;50.118;14.462;2022-09-21T08:43:38;74.43;68.60;78.72;;
60872;Laerm;46714;50.118;14.462;2022-09-21T08:46:30;74.72;68.53;79.36;;
60872;Laerm;46714;50.118;14.462;2022-09-21T08:49:07;75.13;64.96;79.96;;
60872;Laerm;46714;50.118;14.462;2022-09-21T08:51:37;74.76;68.99;79.67;;
60872;Laerm;46714;50.118;14.462;2022-09-21T08:54:12;74.51;67.78;79.57;;
60872;Laerm;46714;50.118;14.462;2022-09-21T08:56:39;74.80;69.29;80.97;;
60872;Laerm;46714;50.118;14.462;2022-09-21T08:59:11;74.87;69.73;78.75;;
60872;Laerm;46714;50.118;14.462;2022-09-21T09:01:42;74.63;68.68;79.30;;
60872;Laerm;46714;50.118;14.462;2022-09-21T09:04:23;74.98;69.42;80.45;;
60872;Laerm;46714;50.118;14.462;2022-09-21T09:07:08;75.11;69.26;79.62;;
60872;Laerm;46714;50.118;14.462;2022-09-21T09:15:13;74.92;68.95;78.77;;
60872;Laerm;46714;50.118;14.462;2022-09-21T09:20:39;78.94;70.86;99.15;;
60872;Laerm;46714;50.118;14.462;2022-09-21T09:25:55;77.31;68.69;94.70;;
60872;Laerm;46714;50.118;14.462;2022-09-21T09:28:29;75.72;69.51;87.18;;
60872;Laerm;46714;50.118;14.462;2022-09-21T09:30:59;74.69;70.80;78.18;;
60872;Laerm;46714;50.118;14.462;2022-09-21T09:33:41;75.11;71.62;78.73;;
60872;Laerm;46714;50.118;14.462;2022-09-21T09:36:10;75.69;70.48;83.19;;
60872;Laerm;46714;50.118;14.462;2022-09-21T09:46:48;75.15;70.09;78.84;;
60872;Laerm;46714;50.118;14.462;2022-09-21T09:52:16;75.03;70.50;80.20;;
60872;Laerm;46714;50.118;14.462;2022-09-21T09:54:42;75.24;67.73;83.78;;
60872;Laerm;46714;50.118;14.462;2022-09-21T09:57:08;77.00;71.27;93.94;;
60872;Laerm;46714;50.118;14.462;2022-09-21T09:59:51;74.86;69.50;82.21;;
60872;Laerm;46714;50.118;14.462;2022-09-21T10:02:21;75.31;71.98;79.53;;
60872;Laerm;46714;50.118;14.462;2022-09-21T10:04:57;75.63;68.98;81.16;;
60872;Laerm;46714;50.118;14.462;2022-09-21T10:07:43;75.18;70.05;80.39;;
60872;Laerm;46714;50.118;14.462;2022-09-21T10:12:56;74.67;68.57;78.96;;
60872;Laerm;46714;50.118;14.462;2022-09-21T10:15:26;76.81;71.56;91.00;;
60872;Laerm;46714;50.118;14.462;2022-09-21T10:18:14;75.46;71.28;87.37;;
60872;Laerm;46714;50.118;14.462;2022-09-21T10:21:05;75.10;70.01;83.01;;
60872;Laerm;46714;50.118;14.462;2022-09-21T10:23:32;75.00;70.31;79.31;;
60872;Laerm;46714;50.118;14.462;2022-09-21T10:26:09;77.40;69.88;94.32;;
60872;Laerm;46714;50.118;14.462;2022-09-21T10:28:35;77.24;71.41;93.95;;
60872;Laerm;46714;50.118;14.462;2022-09-21T10:31:38;75.27;70.15;81.51;;
60872;Laerm;46714;50.118;14.462;2022-09-21T10:36:36;74.89;68.62;79.85;;
60872;Laerm;46714;50.118;14.462;2022-09-21T10:39:26;75.94;69.08;85.12;;
60872;Laerm;46714;50.118;14.462;2022-09-21T10:44:22;75.31;70.91;83.17;;
60872;Laerm;46714;50.118;14.462;2022-09-21T10:46:48;74.90;70.03;80.02;;
60872;Laerm;46714;50.118;14.462;2022-09-21T10:49:25;78.38;69.95;94.83;;
60872;Laerm;46714;50.118;14.462;2022-09-21T10:51:54;74.95;71.29;80.52;;
60872;Laerm;46714;50.118;14.462;2022-09-21T10:54:28;75.23;70.76;84.70;;
60872;Laerm;46714;50.118;14.462;2022-09-21T10:56:59;75.41;71.27;79.39;;
60872;Laerm;46714;50.118;14.462;2022-09-21T10:59:31;76.55;70.06;91.72;;
60872;Laerm;46714;50.118;14.462;2022-09-21T11:01:58;74.93;70.46;82.57;;
60872;Laerm;46714;50.118;14.462;2022-09-21T11:04:35;75.28;70.37;79.84;;
60872;Laerm;46714;50.118;14.462;2022-09-21T11:07:23;75.02;69.84;82.31;;
60872;Laerm;46714;50.118;14.462;2022-09-21T11:10:25;74.18;67.60;79.14;;
60872;Laerm;46714;50.118;14.462;2022-09-21T11:13:04;75.47;70.59;81.72;;
60872;Laerm;46714;50.118;14.462;2022-09-21T11:15:55;75.15;70.60;81.61;;
60872;Laerm;46714;50.118;14.462;2022-09-21T11:24:36;75.09;70.57;83.32;;
60872;Laerm;46714;50.118;14.462;2022-09-21T11:27:09;74.66;67.22;80.29;;
60872;Laerm;46714;50.118;14.462;2022-09-21T11:29:37;74.63;70.55;78.59;;
60872;Laerm;46714;50.118;14.462;2022-09-21T11:32:35;76.09;71.70;84.94;;
60872;Laerm;46714;50.118;14.462;2022-09-21T11:35:07;79.31;71.44;101.16;;
60872;Laerm;46714;50.118;14.462;2022-09-21T11:38:04;76.69;71.86;94.78;;
60872;Laerm;46714;50.118;14.462;2022-09-21T11:40:54;75.39;71.21;84.17;;
60872;Laerm;46714;50.118;14.462;2022-09-21T11:58:38;75.19;70.45;80.93;;
60872;Laerm;46714;50.118;14.462;2022-09-21T12:04:14;75.30;70.89;82.53;;
60872;Laerm;46714;50.118;14.462;2022-09-21T12:12:08;75.30;71.55;78.73;;
60872;Laerm;46714;50.118;14.462;2022-09-21T12:14:56;75.10;68.24;79.77;;
60872;Laerm;46714;50.118;14.462;2022-09-21T12:22:59;75.36;72.07;79.32;;
60872;Laerm;46714;50.118;14.462;2022-09-21T12:25:40;75.35;71.88;80.55;;
60872;Laerm;46714;50.118;14.462;2022-09-21T12:28:27;74.53;69.75;79.25;;
60872;Laerm;46714;50.118;14.462;2022-09-21T12:31:02;83.11;70.57;104.36;;
60872;Laerm;46714;50.118;14.462;2022-09-21T12:33:42;74.86;70.42;79.69;;
60872;Laerm;46714;50.118;14.462;2022-09-21T12:36:20;75.79;72.08;82.95;;
60872;Laerm;46714;50.118;14.462;2022-09-21T12:38:57;75.13;70.52;79.01;;
60872;Laerm;46714;50.118;14.462;2022-09-21T12:46:33;74.96;71.28;79.72;;
60872;Laerm;46714;50.118;14.462;2022-09-21T12:49:10;74.16;69.75;78.73;;
60872;Laerm;46714;50.118;14.462;2022-09-21T12:51:43;74.36;70.88;80.47;;
60872;Laerm;46714;50.118;14.462;2022-09-21T12:54:44;74.62;70.36;81.19;;
60872;Laerm;46714;50.118;14.462;2022-09-21T13:00:12;74.94;69.48;87.24;;
60872;Laerm;46714;50.118;14.462;2022-09-21T13:02:46;75.04;70.51;82.35;;
60872;Laerm;46714;50.118;14.462;2022-09-21T13:08:09;74.21;69.71;77.31;;
60872;Laerm;46714;50.118;14.462;2022-09-21T13:10:55;74.52;70.43;80.88;;
60872;Laerm;46714;50.118;14.462;2022-09-21T13:15:58;74.05;70.57;78.44;;
60872;Laerm;46714;50.118;14.462;2022-09-21T13:20:50;76.16;70.67;92.48;;
60872;Laerm;46714;50.118;14.462;2022-09-21T13:23:36;74.35;70.22;79.54;;
60872;Laerm;46714;50.118;14.462;2022-09-21T13:26:11;74.09;68.96;78.67;;
60872;Laerm;46714;50.118;14.462;2022-09-21T13:32:49;73.60;69.37;78.87;;
60872;Laerm;46714;50.118;14.462;2022-09-21T13:34:43;73.49;68.63;77.48;;
60872;Laerm;46714;50.118;14.462;2022-09-21T13:44:53;75.20;70.90;79.27;;
60872;Laerm;46714;50.118;14.462;2022-09-21T13:47:28;74.70;69.79;81.26;;
60872;Laerm;46714;50.118;14.462;2022-09-21T13:49:55;76.88;69.99;97.89;;
60872;Laerm;46714;50.118;14.462;2022-09-21T13:52:25;74.59;69.85;79.78;;
60872;Laerm;46714;50.118;14.462;2022-09-21T13:54:56;74.07;70.17;77.82;;
60872;Laerm;46714;50.118;14.462;2022-09-21T14:02:37;74.04;69.71;77.68;;
60872;Laerm;46714;50.118;14.462;2022-09-21T14:08:30;73.77;70.29;77.74;;
60872;Laerm;46714;50.118;14.462;2022-09-21T14:10:58;73.99;68.26;80.56;;
60872;Laerm;46714;50.118;14.462;2022-09-21T14:13:37;74.30;70.73;84.82;;
60872;Laerm;46714;50.118;14.462;2022-09-21T14:16:25;73.24;69.32;77.84;;
60872;Laerm;46714;50.118;14.462;2022-09-21T14:24:43;75.19;70.46;81.23;;
60872;Laerm;46714;50.118;14.462;2022-09-21T14:29:42;78.40;73.57;90.27;;
60872;Laerm;46714;50.118;14.462;2022-09-21T14:32:20;79.20;75.94;82.17;;
60872;Laerm;46714;50.118;14.462;2022-09-21T14:34:49;79.60;74.67;82.78;;
60872;Laerm;46714;50.118;14.462;2022-09-21T14:39:53;79.34;74.37;81.90;;
60872;Laerm;46714;50.118;14.462;2022-09-21T14:42:24;79.20;74.58;83.47;;
60872;Laerm;46714;50.118;14.462;2022-09-21T14:44:55;79.58;76.73;83.94;;
60872;Laerm;46714;50.118;14.462;2022-09-21T14:50:16;80.15;75.61;94.76;;
60872;Laerm;46714;50.118;14.462;2022-09-21T14:53:17;79.27;74.92;82.48;;
60872;Laerm;46714;50.118;14.462;2022-09-21T15:06:34;78.45;75.48;81.32;;
60872;Laerm;46714;50.118;14.462;2022-09-21T15:09:34;78.24;73.39;81.72;;
60872;Laerm;46714;50.118;14.462;2022-09-21T15:12:34;79.94;73.20;101.96;;
60872;Laerm;46714;50.118;14.462;2022-09-21T15:17:55;78.49;73.46;93.08;;
60872;Laerm;46714;50.118;14.462;2022-09-21T15:20:24;76.65;73.24;79.75;;
60872;Laerm;46714;50.118;14.462;2022-09-21T15:22:54;79.76;73.48;98.34;;
60872;Laerm;46714;50.118;14.462;2022-09-21T15:25:21;76.31;71.82;79.62;;
60872;Laerm;46714;50.118;14.462;2022-09-21T15:27:47;77.17;73.10;85.03;;
60872;Laerm;46714;50.118;14.462;2022-09-21T15:30:27;77.69;73.24;93.70;;
60872;Laerm;46714;50.118;14.462;2022-09-21T15:32:58;77.82;71.50;93.35;;
60872;Laerm;46714;50.118;14.462;2022-09-21T15:35:27;76.75;71.27;80.34;;
60872;Laerm;46714;50.118;14.462;2022-09-21T15:37:54;76.25;73.64;80.62;;
60872;Laerm;46714;50.118;14.462;2022-09-21T15:40:30;76.15;71.96;81.71;;
60872;Laerm;46714;50.118;14.462;2022-09-21T15:45:45;76.06;72.66;79.35;;
60872;Laerm;46714;50.118;14.462;2022-09-21T15:48:12;77.11;73.09;93.60;;
60872;Laerm;46714;50.118;14.462;2022-09-21T15:50:38;75.83;72.80;79.64;;
60872;Laerm;46714;50.118;14.462;2022-09-21T15:53:22;76.15;71.57;79.90;;
60872;Laerm;46714;50.118;14.462;2022-09-21T15:55:49;76.67;72.02;83.15;;
60872;Laerm;46714;50.118;14.462;2022-09-21T15:58:57;76.02;71.21;80.36;;
60872;Laerm;46714;50.118;14.462;2022-09-21T16:01:16;76.83;71.76;88.27;;
60872;Laerm;46714;50.118;14.462;2022-09-21T16:03:46;75.41;71.22;79.17;;
60872;Laerm;46714;50.118;14.462;2022-09-21T16:08:46;75.39;71.72;79.35;;
60872;Laerm;46714;50.118;14.462;2022-09-21T16:11:15;75.29;69.63;80.77;;
60872;Laerm;46714;50.118;14.462;2022-09-21T16:13:42;75.10;70.27;78.58;;
60872;Laerm;46714;50.118;14.462;2022-09-21T16:22:38;75.12;66.99;80.60;;
60872;Laerm;46714;50.118;14.462;2022-09-21T16:27:53;75.70;69.60;79.98;;
60872;Laerm;46714;50.118;14.462;2022-09-21T16:38:40;75.35;70.47;79.11;;
60872;Laerm;46714;50.118;14.462;2022-09-21T16:41:07;75.17;69.19;79.61;;
60872;Laerm;46714;50.118;14.462;2022-09-21T16:43:33;75.28;69.59;79.35;;
60872;Laerm;46714;50.118;14.462;2022-09-21T16:46:11;75.16;68.53;80.63;;
60872;Laerm;46714;50.118;14.462;2022-09-21T16:48:40;75.65;70.36;81.74;;
60872;Laerm;46714;50.118;14.462;2022-09-21T16:51:12;74.89;64.74;80.78;;
60872;Laerm;46714;50.118;14.462;2022-09-21T16:53:38;75.27;71.06;79.65;;
60872;Laerm;46714;50.118;14.462;2022-09-21T16:56:04;74.90;68.98;79.02;;
60872;Laerm;46714;50.118;14.462;2022-09-21T16:58:31;75.59;69.34;88.90;;
60872;Laerm;46714;50.118;14.462;2022-09-21T17:00:56;74.61;68.71;79.29;;